createdAt,value
2022-11-16T00:01:43.256Z,14.42
2022-11-16T00:04:12.195Z,14.19
2022-11-16T00:06:43.497Z,14.03
2022-11-16T00:09:24.161Z,13.96
2022-11-16T00:11:57.526Z,14.03
2022-11-16T00:14:29.501Z,13.73
2022-11-16T00:17:08.443Z,13.90
2022-11-16T00:19:39.480Z,14.23
2022-11-16T00:22:07.209Z,14.58
2022-11-16T00:24:35.180Z,14.22
2022-11-16T00:27:05.625Z,13.98
2022-11-16T00:31:40.121Z,13.82
2022-11-16T00:32:33.917Z,14.17
2022-11-16T00:35:01.747Z,14.03
2022-11-16T00:37:29.512Z,13.86
2022-11-16T00:39:59.564Z,13.97
2022-11-16T00:42:32.987Z,13.96
2022-11-16T00:45:00.751Z,14.02
2022-11-16T00:47:28.751Z,14.07
2022-11-16T00:49:58.399Z,13.93
2022-11-16T00:52:26.374Z,14.01
2022-11-16T00:55:18.403Z,13.95
2022-11-16T00:57:51.503Z,14.00
2022-11-16T01:00:21.601Z,13.99
2022-11-16T01:02:56.910Z,13.95
2022-11-16T01:05:31.662Z,13.80
2022-11-16T01:08:38.864Z,13.68
2022-11-16T01:11:26.049Z,14.12
2022-11-16T01:14:17.508Z,13.95
2022-11-16T01:16:46.474Z,13.76
2022-11-16T01:19:20.227Z,13.36
2022-11-16T01:21:51.102Z,13.62
2022-11-16T01:24:18.569Z,13.67
2022-11-16T01:26:46.182Z,13.84
2022-11-16T01:29:14.024Z,13.59
2022-11-16T01:31:48.755Z,13.41
2022-11-16T01:34:16.866Z,13.20
2022-11-16T01:36:44.819Z,13.50
2022-11-16T01:39:20.272Z,13.67
2022-11-16T01:41:55.777Z,13.96
2022-11-16T01:44:52.507Z,13.78
2022-11-16T01:47:33.791Z,13.80
2022-11-16T01:50:17.272Z,13.94
2022-11-16T01:53:01.520Z,13.89
2022-11-16T01:55:40.799Z,13.84
2022-11-16T01:58:26.620Z,13.83
2022-11-16T02:01:00.094Z,14.12
2022-11-16T02:03:40.222Z,14.24
2022-11-16T02:06:27.967Z,14.31
2022-11-16T02:09:55.165Z,13.97
2022-11-16T02:13:29.418Z,14.01
2022-11-16T02:16:34.809Z,14.22
2022-11-16T02:20:20.571Z,13.85
2022-11-16T02:23:45.820Z,13.85
2022-11-16T02:26:44.408Z,13.66
2022-11-16T02:29:29.243Z,13.70
2022-11-16T02:32:38.488Z,13.85
2022-11-16T02:35:56.522Z,13.82
2022-11-16T02:38:34.166Z,13.91
2022-11-16T02:41:14.323Z,13.79
2022-11-16T02:43:50.758Z,13.84
2022-11-16T02:46:30.152Z,13.76
2022-11-16T02:49:10.507Z,13.78
2022-11-16T02:51:40.129Z,13.84
2022-11-16T02:54:24.913Z,13.78
2022-11-16T02:57:03.261Z,13.61
2022-11-16T02:59:56.469Z,13.56
2022-11-16T03:02:52.623Z,13.53
2022-11-16T03:05:40.028Z,13.70
2022-11-16T03:08:33.162Z,13.47
2022-11-16T03:11:27.581Z,13.28
2022-11-16T03:14:12.049Z,13.26
2022-11-16T03:16:47.003Z,13.40
2022-11-16T03:19:28.685Z,13.34
2022-11-16T03:22:35.762Z,13.39
2022-11-16T03:25:10.329Z,13.46
2022-11-16T03:28:09.466Z,13.41
2022-11-16T03:30:49.885Z,13.47
2022-11-16T03:33:34.207Z,13.50
2022-11-16T03:36:13.914Z,13.68
2022-11-16T03:38:45.758Z,13.56
2022-11-16T03:41:45.271Z,13.45
2022-11-16T03:44:17.569Z,13.49
2022-11-16T03:46:47.696Z,13.54
2022-11-16T03:49:16.490Z,13.59
2022-11-16T03:51:43.943Z,13.57
2022-11-16T03:54:11.180Z,13.39
2022-11-16T03:56:39.870Z,13.47
2022-11-16T03:59:07.000Z,13.40
2022-11-16T04:01:34.983Z,13.49
2022-11-16T04:04:03.304Z,13.56
2022-11-16T04:07:03.064Z,13.56
2022-11-16T04:09:49.056Z,13.52
2022-11-16T04:12:35.067Z,13.57
2022-11-16T04:15:21.067Z,13.14
2022-11-16T04:18:07.026Z,13.24
2022-11-16T04:20:52.917Z,13.41
2022-11-16T04:23:39.774Z,13.38
2022-11-16T04:26:09.989Z,13.50
2022-11-16T04:28:38.749Z,13.28
2022-11-16T04:31:25.259Z,13.07
2022-11-16T04:34:20.086Z,13.38
2022-11-16T04:37:10.309Z,13.10
2022-11-16T04:39:38.691Z,13.47
2022-11-16T04:42:22.180Z,13.66
2022-11-16T04:45:38.300Z,13.23
2022-11-16T04:48:06.465Z,13.45
2022-11-16T04:50:36.625Z,13.55
2022-11-16T04:53:05.469Z,13.76
2022-11-16T04:55:38.979Z,13.52
2022-11-16T04:58:06.509Z,13.81
2022-11-16T05:00:33.893Z,13.99
2022-11-16T05:03:03.603Z,13.98
2022-11-16T05:05:30.804Z,13.94
2022-11-16T05:08:00.308Z,14.02
2022-11-16T05:10:31.651Z,14.15
2022-11-16T05:12:59.645Z,14.10
2022-11-16T05:15:28.443Z,14.08
2022-11-16T05:17:58.201Z,13.98
2022-11-16T05:20:45.142Z,14.07
2022-11-16T05:23:33.406Z,13.96
2022-11-16T05:26:06.453Z,13.98
2022-11-16T05:28:33.989Z,14.59
2022-11-16T05:31:02.540Z,14.30
2022-11-16T05:33:31.892Z,14.38
2022-11-16T05:35:59.115Z,14.59
2022-11-16T05:38:26.713Z,14.41
2022-11-16T05:41:03.305Z,14.27
2022-11-16T05:43:31.304Z,14.16
2022-11-16T05:46:08.229Z,14.05
2022-11-16T05:48:36.696Z,14.19
2022-11-16T05:51:06.569Z,14.38
2022-11-16T05:53:34.989Z,14.22
2022-11-16T05:56:03.378Z,14.55
2022-11-16T05:58:33.967Z,14.19
2022-11-16T06:01:02.390Z,13.86
2022-11-16T06:03:31.253Z,14.17
2022-11-16T06:05:59.736Z,14.11
2022-11-16T06:08:29.739Z,14.17
2022-11-16T06:11:07.529Z,13.95
2022-11-16T06:13:36.809Z,13.93
2022-11-16T06:16:05.994Z,13.76
2022-11-16T06:18:41.602Z,13.74
2022-11-16T06:21:11.318Z,13.70
2022-11-16T06:23:39.210Z,13.72
2022-11-16T06:26:08.653Z,13.89
2022-11-16T06:28:37.758Z,13.91
2022-11-16T06:31:06.614Z,13.75
2022-11-16T06:33:38.074Z,14.07
2022-11-16T06:36:10.385Z,13.92
2022-11-16T06:38:38.695Z,13.82
2022-11-16T06:41:07.955Z,13.78
2022-11-16T06:43:41.335Z,13.72
2022-11-16T06:46:09.422Z,13.90
2022-11-16T06:48:39.275Z,13.88
2022-11-16T06:51:11.134Z,13.85
2022-11-16T06:53:38.516Z,13.94
2022-11-16T06:56:07.786Z,14.02
2022-11-16T06:58:43.244Z,14.05
2022-11-16T07:01:13.069Z,13.92
2022-11-16T07:03:43.119Z,13.99
2022-11-16T07:06:13.784Z,13.95
2022-11-16T07:08:44.739Z,13.97
2022-11-16T07:11:15.134Z,13.95
2022-11-16T07:13:43.299Z,13.98
2022-11-16T07:16:12.478Z,14.06
2022-11-16T07:18:45.261Z,14.03
2022-11-16T07:21:16.689Z,13.95
2022-11-16T07:23:45.827Z,13.84
2022-11-16T07:26:18.985Z,13.95
2022-11-16T07:29:01.636Z,14.08
2022-11-16T07:31:30.789Z,14.15
2022-11-16T07:34:29.454Z,14.14
2022-11-16T07:37:13.113Z,14.17
2022-11-16T07:39:40.979Z,14.20
2022-11-16T07:42:11.770Z,14.24
2022-11-16T07:44:57.972Z,14.23
2022-11-16T07:47:25.674Z,14.30
2022-11-16T07:49:53.156Z,14.57
2022-11-16T07:52:22.234Z,14.47
2022-11-16T07:55:01.742Z,14.59
2022-11-16T07:57:31.190Z,14.64
2022-11-16T08:00:01.658Z,14.71
2022-11-16T08:02:40.827Z,14.57
2022-11-16T08:05:11.662Z,14.61
2022-11-16T08:07:40.165Z,14.66
2022-11-16T08:10:09.127Z,14.55
2022-11-16T08:12:36.360Z,14.64
2022-11-16T08:15:04.238Z,15.00
2022-11-16T08:17:31.563Z,14.99
2022-11-16T08:19:59.719Z,15.02
2022-11-16T08:22:26.933Z,15.19
2022-11-16T08:24:55.148Z,15.34
2022-11-16T08:27:24.879Z,15.92
2022-11-16T08:29:56.061Z,15.43
2022-11-16T08:32:23.428Z,15.52
2022-11-16T08:34:51.019Z,15.56
2022-11-16T08:37:18.626Z,15.64
2022-11-16T08:39:46.262Z,15.86
2022-11-16T08:42:14.039Z,16.13
2022-11-16T08:44:46.138Z,16.31
2022-11-16T08:47:16.034Z,16.58
2022-11-16T08:49:50.015Z,16.57
2022-11-16T08:52:19.152Z,16.47
2022-11-16T08:54:47.282Z,16.50
2022-11-16T08:57:15.390Z,16.60
2022-11-16T08:59:45.129Z,16.77
2022-11-16T09:02:14.916Z,16.67
2022-11-16T09:04:43.806Z,16.57
2022-11-16T09:07:11.649Z,16.51
2022-11-16T09:09:39.528Z,16.75
2022-11-16T09:12:07.203Z,17.37
2022-11-16T09:14:34.509Z,18.02
2022-11-16T09:17:01.692Z,18.72
2022-11-16T09:19:29.215Z,18.45
2022-11-16T09:21:56.425Z,19.24
2022-11-16T09:24:23.759Z,19.38
2022-11-16T09:26:51.668Z,19.27
2022-11-16T09:29:19.164Z,18.91
2022-11-16T09:31:46.584Z,18.46
2022-11-16T09:34:14.256Z,17.80
2022-11-16T09:36:41.487Z,18.41
2022-11-16T09:48:14.024Z,25.16
2022-11-16T09:51:07.536Z,26.22
2022-11-16T09:54:02.483Z,25.23
2022-11-16T09:56:49.467Z,23.82
2022-11-16T10:00:03.739Z,22.64
2022-11-16T10:03:03.779Z,21.58
2022-11-16T10:06:43.602Z,20.25
2022-11-16T10:08:57.012Z,20.15
2022-11-16T10:12:09.744Z,20.07
2022-11-16T10:15:25.554Z,20.00
2022-11-16T10:18:38.605Z,19.80
2022-11-16T10:21:50.248Z,19.56
2022-11-16T10:25:02.677Z,19.15
2022-11-16T10:27:53.637Z,18.11
2022-11-16T10:30:22.693Z,18.39
2022-11-16T10:33:11.590Z,18.64
2022-11-16T10:35:57.059Z,18.44
2022-11-16T10:38:31.371Z,18.62
2022-11-16T10:41:24.671Z,18.35
2022-11-16T10:43:55.715Z,18.23
2022-11-16T10:46:41.411Z,17.99
2022-11-16T10:49:50.733Z,18.23
2022-11-16T10:52:20.598Z,17.97
2022-11-16T10:54:47.878Z,17.74
2022-11-16T10:57:15.271Z,17.79
2022-11-16T10:59:53.339Z,17.94
2022-11-16T11:02:36.047Z,18.22
2022-11-16T11:05:17.104Z,18.52
2022-11-16T11:08:20.507Z,18.91
2022-11-16T11:11:25.510Z,19.01
2022-11-16T11:14:16.509Z,19.56
2022-11-16T11:17:41.203Z,19.78
2022-11-16T11:20:12.633Z,19.34
2022-11-16T11:23:50.970Z,18.99
2022-11-16T11:26:41.223Z,18.36
2022-11-16T11:29:24.383Z,18.37
2022-11-16T11:32:05.739Z,18.05
2022-11-16T11:34:45.638Z,18.10
2022-11-16T11:37:32.656Z,18.16
2022-11-16T11:40:46.831Z,18.62
2022-11-16T11:44:12.396Z,18.78
2022-11-16T11:50:22.560Z,19.61
2022-11-16T11:54:19.024Z,19.21
2022-11-16T11:57:32.840Z,19.49
2022-11-16T12:00:32.876Z,19.90
2022-11-16T12:03:17.401Z,21.04
2022-11-16T12:06:11.464Z,22.90
2022-11-16T12:09:19.448Z,22.98
2022-11-16T12:12:43.127Z,22.97
2022-11-16T12:15:44.040Z,22.90
2022-11-16T12:18:36.816Z,22.64
2022-11-16T12:21:34.052Z,22.70
2022-11-16T12:24:42.639Z,22.45
2022-11-16T12:27:48.577Z,21.96
2022-11-16T12:30:24.639Z,21.52
2022-11-16T12:34:00.147Z,20.61
2022-11-16T12:36:51.747Z,20.98
2022-11-16T12:40:09.052Z,20.79
2022-11-16T12:43:36.887Z,19.98
2022-11-16T12:46:59.479Z,19.70
2022-11-16T12:49:52.365Z,20.69
2022-11-16T12:52:44.996Z,21.39
2022-11-16T12:56:17.332Z,20.54
2022-11-16T13:00:16.258Z,19.75
2022-11-16T13:03:21.455Z,19.08
2022-11-16T13:06:15.315Z,18.83
2022-11-16T13:09:19.741Z,18.61
2022-11-16T13:12:03.409Z,18.70
2022-11-16T13:14:58.761Z,18.78
2022-11-16T13:17:37.724Z,18.89
2022-11-16T13:20:30.269Z,18.83
2022-11-16T13:23:34.599Z,19.11
2022-11-16T13:26:32.779Z,19.18
2022-11-16T13:29:16.194Z,19.32
2022-11-16T13:31:59.877Z,19.15
2022-11-16T13:34:38.104Z,18.86
2022-11-16T13:37:36.783Z,18.75
2022-11-16T13:40:06.528Z,18.60
2022-11-16T13:43:06.044Z,18.55
2022-11-16T13:45:53.087Z,18.65
2022-11-16T13:48:36.085Z,18.76
2022-11-16T13:51:08.494Z,18.90
2022-11-16T13:56:51.749Z,18.57
2022-11-16T13:59:36.562Z,18.24
2022-11-16T14:02:31.725Z,18.06
2022-11-16T14:05:16.489Z,18.12
2022-11-16T14:08:07.152Z,18.51
2022-11-16T14:10:37.393Z,18.61
2022-11-16T14:13:29.298Z,18.64
2022-11-16T14:16:21.693Z,18.71
2022-11-16T14:18:59.292Z,18.85
2022-11-16T14:21:48.898Z,19.02
2022-11-16T14:24:50.497Z,19.22
2022-11-16T14:27:36.301Z,19.43
2022-11-16T14:30:28.578Z,19.36
2022-11-16T14:32:57.843Z,19.38
2022-11-16T14:35:38.272Z,19.26
2022-11-16T14:38:43.230Z,19.00
2022-11-16T14:41:22.289Z,18.70
2022-11-16T14:43:57.562Z,18.80
2022-11-16T14:46:38.084Z,19.48
2022-11-16T14:49:40.214Z,20.26
2022-11-16T14:52:11.544Z,20.27
2022-11-16T14:55:00.655Z,20.10
2022-11-16T14:57:29.887Z,20.04
2022-11-16T15:00:32.087Z,19.94
2022-11-16T15:03:11.727Z,19.36
2022-11-16T15:05:49.906Z,18.90
2022-11-16T15:08:55.863Z,18.59
2022-11-16T15:11:54.407Z,18.24
2022-11-16T15:14:33.066Z,18.08
2022-11-16T15:17:13.292Z,17.81
2022-11-16T15:20:26.178Z,17.55
2022-11-16T15:26:04.681Z,16.78
2022-11-16T15:28:36.029Z,16.55
2022-11-16T15:31:16.921Z,16.27
2022-11-16T15:33:52.651Z,16.00
2022-11-16T15:36:39.253Z,15.83
2022-11-16T15:39:23.430Z,15.59
2022-11-16T15:41:52.730Z,15.48
2022-11-16T15:44:23.661Z,15.72
2022-11-16T15:46:55.192Z,15.36
2022-11-16T15:49:41.466Z,14.73
2022-11-16T15:52:08.564Z,14.12
2022-11-16T15:54:55.408Z,14.15
2022-11-16T15:57:24.879Z,13.99
2022-11-16T15:59:57.101Z,14.10
2022-11-16T16:02:28.992Z,13.88
2022-11-16T16:04:56.653Z,13.75
2022-11-16T16:07:43.068Z,13.50
2022-11-16T16:10:19.298Z,13.51
2022-11-16T16:13:00.248Z,14.00
2022-11-16T16:15:36.195Z,13.96
2022-11-16T16:18:39.359Z,13.78
2022-11-16T16:21:06.877Z,13.71
2022-11-16T16:23:44.428Z,13.19
2022-11-16T16:26:11.575Z,13.13
2022-11-16T16:28:38.706Z,12.91
2022-11-16T16:31:06.830Z,12.63
2022-11-16T16:33:34.236Z,12.40
2022-11-16T16:36:02.096Z,12.42
2022-11-16T16:38:29.846Z,12.75
2022-11-16T16:41:07.076Z,12.95
2022-11-16T16:43:34.904Z,12.95
2022-11-16T16:46:03.894Z,13.03
2022-11-16T16:48:31.258Z,13.09
2022-11-16T16:50:58.457Z,12.70
2022-11-16T16:53:25.702Z,12.37
2022-11-16T16:55:53.000Z,12.20
2022-11-16T16:58:20.308Z,12.09
2022-11-16T17:00:47.612Z,11.78
2022-11-16T17:03:14.885Z,11.63
2022-11-16T17:05:42.100Z,11.67
2022-11-16T17:08:09.234Z,11.61
2022-11-16T17:10:39.036Z,11.75
2022-11-16T17:13:06.510Z,11.82
2022-11-16T17:15:34.253Z,11.34
2022-11-16T17:18:01.707Z,11.22
2022-11-16T17:20:29.103Z,11.10
2022-11-16T17:22:56.365Z,11.18
2022-11-16T17:25:24.081Z,11.20
2022-11-16T17:27:52.101Z,11.67
2022-11-16T17:30:19.781Z,11.88
2022-11-16T17:32:46.953Z,11.68
2022-11-16T17:35:14.369Z,11.37
2022-11-16T17:37:41.667Z,11.15
2022-11-16T17:40:09.821Z,10.78
2022-11-16T17:42:37.557Z,10.55
2022-11-16T17:45:06.858Z,10.37
2022-11-16T17:47:34.265Z,10.55
2022-11-16T17:50:01.900Z,10.83
2022-11-16T17:52:29.216Z,10.86
2022-11-16T17:54:56.490Z,11.14
2022-11-16T17:57:24.013Z,11.18
2022-11-16T17:59:52.133Z,11.11
2022-11-16T18:02:19.640Z,11.39
2022-11-16T18:04:51.280Z,11.21
2022-11-16T18:07:19.065Z,10.79
2022-11-16T18:09:46.858Z,10.66
2022-11-16T18:12:14.435Z,10.75
2022-11-16T18:14:42.486Z,10.95
2022-11-16T18:17:10.177Z,11.03
2022-11-16T18:19:37.415Z,10.92
2022-11-16T18:22:04.721Z,10.95
2022-11-16T18:24:32.422Z,10.79
2022-11-16T18:27:00.457Z,10.71
2022-11-16T18:29:28.664Z,11.05
2022-11-16T18:31:55.835Z,10.93
2022-11-16T18:34:23.099Z,11.37
2022-11-16T18:36:50.957Z,11.12
2022-11-16T18:39:18.307Z,11.19
2022-11-16T18:41:51.718Z,10.53
2022-11-16T18:44:22.549Z,10.19
2022-11-16T18:46:50.556Z,10.03
2022-11-16T18:49:19.505Z,9.96
2022-11-16T18:51:46.764Z,9.98
2022-11-16T18:54:14.046Z,9.93
2022-11-16T18:56:41.976Z,10.01
2022-11-16T18:59:09.454Z,10.07
2022-11-16T19:01:37.376Z,9.79
2022-11-16T19:04:05.315Z,9.91
2022-11-16T19:06:32.801Z,9.94
2022-11-16T19:09:01.333Z,9.99
2022-11-16T19:11:28.879Z,9.82
2022-11-16T19:14:07.476Z,9.97
2022-11-16T19:16:36.001Z,9.83
2022-11-16T19:19:04.451Z,9.83
2022-11-16T19:21:31.968Z,9.56
2022-11-16T19:23:59.919Z,9.78
2022-11-16T19:26:29.077Z,9.52
2022-11-16T19:28:56.960Z,9.40
2022-11-16T19:31:30.484Z,9.24
2022-11-16T19:34:10.086Z,9.12
2022-11-16T19:36:37.851Z,9.12
2022-11-16T19:39:05.980Z,8.89
2022-11-16T19:41:33.619Z,9.06
2022-11-16T19:44:01.855Z,8.78
2022-11-16T19:46:33.882Z,8.61
2022-11-16T19:49:01.718Z,8.59
2022-11-16T19:51:32.522Z,8.82
2022-11-16T19:54:03.498Z,8.49
2022-11-16T19:56:31.307Z,8.92
2022-11-16T19:58:59.193Z,9.20
2022-11-16T20:01:29.597Z,9.56
2022-11-16T20:04:02.099Z,9.16
2022-11-16T20:06:36.292Z,9.20
2022-11-16T20:09:08.924Z,9.22
2022-11-16T20:11:41.795Z,9.05
2022-11-16T20:14:12.258Z,9.38
2022-11-16T20:16:43.533Z,9.65
2022-11-16T20:19:11.026Z,9.67
2022-11-16T20:21:43.956Z,9.71
2022-11-16T20:24:15.360Z,9.84
2022-11-16T20:26:47.903Z,9.40
2022-11-16T20:29:18.299Z,9.41
2022-11-16T20:31:46.339Z,9.29
2022-11-16T20:34:16.918Z,9.43
2022-11-16T20:36:47.962Z,9.20
2022-11-16T20:39:20.914Z,9.20
2022-11-16T20:41:48.978Z,9.12
2022-11-16T20:44:21.018Z,9.01
2022-11-16T20:46:49.042Z,8.88
2022-11-16T20:49:16.371Z,8.81
2022-11-16T20:51:46.023Z,8.66
2022-11-16T20:54:13.254Z,8.46
2022-11-16T20:56:40.709Z,8.50
2022-11-16T20:59:07.879Z,8.70
2022-11-16T21:01:36.612Z,8.54
2022-11-16T21:04:06.159Z,8.84
2022-11-16T21:06:34.157Z,9.25
2022-11-16T21:09:02.203Z,9.44
2022-11-16T21:11:55.578Z,9.66
2022-11-16T21:14:36.023Z,9.00
2022-11-16T21:17:03.213Z,9.03
2022-11-16T21:19:30.328Z,9.21
2022-11-16T21:21:57.458Z,9.14
2022-11-16T21:24:24.841Z,9.16
2022-11-16T21:26:52.435Z,9.17
2022-11-16T21:29:25.746Z,8.95
2022-11-16T21:31:52.935Z,9.17
2022-11-16T21:34:20.281Z,9.14
2022-11-16T21:36:47.699Z,8.67
2022-11-16T21:39:14.841Z,8.57
2022-11-16T21:41:42.330Z,8.95
2022-11-16T21:44:11.886Z,9.00
2022-11-16T21:46:39.051Z,9.24
2022-11-16T21:49:07.532Z,9.39
2022-11-16T21:51:34.723Z,9.16
2022-11-16T21:54:01.956Z,8.68
2022-11-16T21:56:29.109Z,8.58
2022-11-16T21:58:56.268Z,8.36
2022-11-16T22:01:24.522Z,8.52
2022-11-16T22:04:10.755Z,8.77
2022-11-16T22:07:07.271Z,9.07
2022-11-16T22:09:34.668Z,9.15
2022-11-16T22:12:05.215Z,9.27
2022-11-16T22:14:32.886Z,9.11
2022-11-16T22:17:00.446Z,9.06
2022-11-16T22:19:27.838Z,9.27
2022-11-16T22:21:55.150Z,9.43
2022-11-16T22:24:22.436Z,9.47
2022-11-16T22:26:49.881Z,9.58
2022-11-16T22:29:17.192Z,9.47
2022-11-16T22:31:44.674Z,9.61
2022-11-16T22:34:12.014Z,9.81
2022-11-16T22:36:39.195Z,9.68
2022-11-16T22:39:06.440Z,9.69
2022-11-16T22:41:33.667Z,9.75
2022-11-16T22:44:00.948Z,9.97
2022-11-16T22:46:29.371Z,10.06
2022-11-16T22:48:56.978Z,10.31
2022-11-16T22:51:28.304Z,10.21
2022-11-16T22:54:03.703Z,10.25
2022-11-16T22:56:33.963Z,10.42
2022-11-16T22:59:03.606Z,10.92
2022-11-16T23:01:31.924Z,10.82
2022-11-16T23:03:59.258Z,10.48
2022-11-16T23:06:26.732Z,10.23
2022-11-16T23:08:55.683Z,10.08
2022-11-16T23:11:44.676Z,10.08
2022-11-16T23:14:36.086Z,10.32
2022-11-16T23:17:07.132Z,10.29
2022-11-16T23:19:53.553Z,10.28
2022-11-16T23:22:41.143Z,10.17
2022-11-16T23:25:30.805Z,10.37
2022-11-16T23:28:10.593Z,10.19
2022-11-16T23:30:40.876Z,10.38
2022-11-16T23:33:09.128Z,10.44
2022-11-16T23:35:36.584Z,10.50
2022-11-16T23:38:07.633Z,10.38
2022-11-16T23:40:41.099Z,10.36
2022-11-16T23:43:32.568Z,10.61
2022-11-16T23:46:05.069Z,10.84
2022-11-16T23:48:32.844Z,10.51
2022-11-16T23:51:01.587Z,10.73
2022-11-16T23:53:36.749Z,10.57
2022-11-16T23:56:06.182Z,10.52
2022-11-16T23:58:33.946Z,10.47
